createdAt,value
2019-05-16T00:00:43.180Z,99455.95
2019-05-16T00:03:18.550Z,99455.88
2019-05-16T00:05:54.647Z,99453.03
2019-05-16T00:08:28.618Z,99445.22
2019-05-16T00:11:02.637Z,99436.70
2019-05-16T00:13:38.273Z,99442.80
2019-05-16T00:16:10.943Z,99442.84
2019-05-16T00:18:43.765Z,99451.48
2019-05-16T00:21:17.948Z,99456.16
2019-05-16T00:23:52.087Z,99452.28
2019-05-16T00:26:28.124Z,99444.68
2019-05-16T00:29:01.618Z,99461.23
2019-05-16T00:31:34.722Z,99462.66
2019-05-16T00:34:09.615Z,99461.49
2019-05-16T00:36:42.645Z,99460.66
2019-05-16T00:39:15.402Z,99451.28
2019-05-16T00:41:48.767Z,99443.92
2019-05-16T00:44:21.220Z,99451.89
2019-05-16T00:46:54.596Z,99453.27
2019-05-16T00:49:28.823Z,99452.60
2019-05-16T00:52:02.635Z,99453.53
2019-05-16T00:54:38.239Z,99451.17
2019-05-16T00:57:11.361Z,99449.06
2019-05-16T00:59:45.644Z,99444.03
2019-05-16T01:02:18.514Z,99439.02
2019-05-16T01:04:52.815Z,99440.25
2019-05-16T01:07:27.712Z,99438.88
2019-05-16T01:10:01.281Z,99440.89
2019-05-16T01:12:34.134Z,99437.39
2019-05-16T01:15:07.712Z,99436.63
2019-05-16T01:17:42.089Z,99436.80
2019-05-16T01:20:15.597Z,99440.33
2019-05-16T01:22:49.320Z,99442.77
2019-05-16T01:25:23.512Z,99440.03
2019-05-16T01:27:58.245Z,99440.61
2019-05-16T01:30:32.382Z,99435.59
2019-05-16T01:33:05.296Z,99431.30
2019-05-16T01:35:39.037Z,99436.65
2019-05-16T01:38:14.102Z,99429.55
2019-05-16T01:40:49.164Z,99425.16
2019-05-16T01:43:22.846Z,99421.55
2019-05-16T01:45:57.826Z,99419.20
2019-05-16T01:48:31.694Z,99421.36
2019-05-16T01:51:07.614Z,99421.94
2019-05-16T01:53:39.876Z,99415.08
2019-05-16T01:56:14.135Z,99416.56
2019-05-16T01:58:49.055Z,99418.05
2019-05-16T02:01:23.596Z,99413.47
2019-05-16T02:03:58.698Z,99413.95
2019-05-16T02:06:31.838Z,99412.86
2019-05-16T02:09:08.108Z,99415.25
2019-05-16T02:11:41.340Z,99409.77
2019-05-16T02:14:17.612Z,99407.80
2019-05-16T02:16:50.926Z,99403.73
2019-05-16T02:19:24.706Z,99404.12
2019-05-16T02:21:59.673Z,99395.12
2019-05-16T02:24:32.993Z,99392.33
2019-05-16T02:27:09.323Z,99391.13
2019-05-16T02:29:41.326Z,99393.28
2019-05-16T02:32:15.079Z,99389.28
2019-05-16T02:34:47.959Z,99397.00
2019-05-16T02:37:29.088Z,99394.23
2019-05-16T02:39:55.729Z,99386.52
2019-05-16T02:42:31.052Z,99384.92
2019-05-16T02:45:04.052Z,99381.84
2019-05-16T02:47:37.906Z,99381.49
2019-05-16T02:50:12.469Z,99378.31
2019-05-16T02:52:46.580Z,99379.56
2019-05-16T02:55:21.655Z,99373.20
2019-05-16T02:57:54.470Z,99376.63
2019-05-16T03:00:42.637Z,99373.63
2019-05-16T03:03:15.626Z,99373.33
2019-05-16T03:05:51.119Z,99364.94
2019-05-16T03:08:26.374Z,99358.69
2019-05-16T03:11:01.155Z,99359.51
2019-05-16T03:13:38.206Z,99365.55
2019-05-16T03:16:14.493Z,99363.19
2019-05-16T03:18:51.609Z,99352.19
2019-05-16T03:21:30.731Z,99355.44
2019-05-16T03:24:02.365Z,99352.61
2019-05-16T03:26:35.815Z,99348.36
2019-05-16T03:29:11.392Z,99346.05
2019-05-16T03:31:46.007Z,99342.74
2019-05-16T03:34:25.273Z,99340.65
2019-05-16T03:36:55.390Z,99339.59
2019-05-16T03:39:31.152Z,99332.93
2019-05-16T03:42:03.630Z,99345.66
2019-05-16T03:44:40.881Z,99346.47
2019-05-16T03:47:12.229Z,99342.55
2019-05-16T03:49:45.477Z,99344.60
2019-05-16T03:52:20.718Z,99344.20
2019-05-16T03:54:54.003Z,99351.40
2019-05-16T03:57:30.452Z,99351.34
2019-05-16T04:00:02.226Z,99351.11
2019-05-16T04:02:35.504Z,99352.39
2019-05-16T04:05:10.915Z,99357.91
2019-05-16T04:07:42.139Z,99357.70
2019-05-16T04:10:15.191Z,99358.22
2019-05-16T04:12:51.136Z,99361.13
2019-05-16T04:15:24.044Z,99362.27
2019-05-16T04:17:57.103Z,99355.30
2019-05-16T04:20:30.590Z,99358.60
2019-05-16T04:23:05.108Z,99368.06
2019-05-16T04:25:41.103Z,99376.27
2019-05-16T04:28:13.666Z,99378.86
2019-05-16T04:30:46.431Z,99380.25
2019-05-16T04:33:21.884Z,99382.63
2019-05-16T04:35:55.123Z,99378.78
2019-05-16T04:38:39.094Z,99376.03
2019-05-16T04:41:03.271Z,99370.71
2019-05-16T04:43:37.127Z,99369.91
2019-05-16T04:46:11.630Z,99371.97
2019-05-16T04:48:45.059Z,99378.08
2019-05-16T04:51:21.600Z,99372.75
2019-05-16T04:53:54.292Z,99370.54
2019-05-16T04:56:30.684Z,99369.58
2019-05-16T04:59:02.145Z,99369.81
2019-05-16T05:01:35.556Z,99371.08
2019-05-16T05:04:14.435Z,99371.90
2019-05-16T05:06:44.176Z,99367.27
2019-05-16T05:09:20.732Z,99381.38
2019-05-16T05:11:52.271Z,99382.51
2019-05-16T05:14:25.772Z,99384.86
2019-05-16T05:17:01.431Z,99383.31
2019-05-16T05:19:34.028Z,99388.98
2019-05-16T05:22:07.795Z,99393.79
2019-05-16T05:24:42.018Z,99396.73
2019-05-16T05:27:16.203Z,99402.09
2019-05-16T05:29:50.376Z,99403.12
2019-05-16T05:32:23.537Z,99411.63
2019-05-16T05:34:59.869Z,99415.75
2019-05-16T05:37:32.768Z,99423.23
2019-05-16T05:40:05.924Z,99420.29
2019-05-16T05:42:39.957Z,99425.64
2019-05-16T05:45:12.763Z,99428.23
2019-05-16T05:47:46.966Z,99425.09
2019-05-16T05:50:20.700Z,99433.19
2019-05-16T05:52:53.574Z,99438.32
2019-05-16T05:55:26.974Z,99434.21
2019-05-16T05:58:01.099Z,99434.97
2019-05-16T06:00:35.410Z,99426.42
2019-05-16T06:03:10.686Z,99436.72
2019-05-16T06:05:44.731Z,99432.45
2019-05-16T06:08:20.123Z,99430.81
2019-05-16T06:10:52.508Z,99441.20
2019-05-16T06:13:26.290Z,99439.34
2019-05-16T06:16:00.323Z,99439.55
2019-05-16T06:18:34.714Z,99440.16
2019-05-16T06:21:11.218Z,99444.16
2019-05-16T06:23:43.927Z,99443.39
2019-05-16T06:26:20.361Z,99442.92
2019-05-16T06:28:53.304Z,99446.72
2019-05-16T06:31:26.723Z,99440.46
2019-05-16T06:34:08.359Z,99442.03
2019-05-16T06:36:35.183Z,99435.72
2019-05-16T06:39:11.396Z,99443.02
2019-05-16T06:41:45.091Z,99448.47
2019-05-16T06:44:20.305Z,99448.55
2019-05-16T06:47:07.379Z,99452.04
2019-05-16T06:49:30.392Z,99448.82
2019-05-16T06:52:02.887Z,99448.04
2019-05-16T06:54:37.014Z,99449.42
2019-05-16T06:57:10.689Z,99456.78
2019-05-16T06:59:45.487Z,99460.80
2019-05-16T07:02:29.708Z,99452.11
2019-05-16T07:04:53.865Z,99452.13
2019-05-16T07:07:27.157Z,99453.80
2019-05-16T07:10:04.483Z,99454.97
2019-05-16T07:12:36.222Z,99451.11
2019-05-16T07:15:12.420Z,99440.33
2019-05-16T07:17:46.130Z,99440.03
2019-05-16T07:20:21.211Z,99435.30
2019-05-16T07:22:54.504Z,99445.85
2019-05-16T07:25:29.997Z,99450.18
2019-05-16T07:28:02.300Z,99449.27
2019-05-16T07:30:36.762Z,99450.03
2019-05-16T07:33:10.981Z,99450.95
2019-05-16T07:35:44.390Z,99452.50
2019-05-16T07:38:20.377Z,99454.39
2019-05-16T07:40:55.113Z,99458.47
2019-05-16T07:43:30.959Z,99462.80
2019-05-16T07:46:03.786Z,99463.62
2019-05-16T07:48:40.149Z,99457.19
2019-05-16T07:51:12.493Z,99453.33
2019-05-16T07:53:44.884Z,99456.38
2019-05-16T07:56:20.174Z,99457.00
2019-05-16T07:58:53.152Z,99468.80
2019-05-16T08:01:25.477Z,99471.55
2019-05-16T08:04:00.022Z,99460.41
2019-05-16T08:06:34.552Z,99461.14
2019-05-16T08:09:11.992Z,99459.81
2019-05-16T08:11:45.033Z,99466.61
2019-05-16T08:14:21.043Z,99465.72
2019-05-16T08:16:53.342Z,99467.40
2019-05-16T08:19:26.938Z,99465.59
2019-05-16T08:22:01.270Z,99459.07
2019-05-16T08:24:36.183Z,99460.66
2019-05-16T08:27:12.170Z,99467.18
2019-05-16T08:29:45.575Z,99463.38
2019-05-16T08:32:22.650Z,99460.91
2019-05-16T08:34:53.468Z,99459.16
2019-05-16T08:40:02.045Z,99458.94
2019-05-16T08:42:35.353Z,99460.87
2019-05-16T08:45:12.790Z,99459.95
2019-05-16T08:47:46.078Z,99457.91
2019-05-16T08:50:11.304Z,99458.06
2019-05-16T08:50:21.682Z,99455.28
2019-05-16T08:52:55.780Z,99452.52
2019-05-16T08:55:31.309Z,99450.84
2019-05-16T08:58:04.051Z,99447.64
2019-05-16T09:00:36.939Z,99446.85
2019-05-16T09:03:12.263Z,99444.14
2019-05-16T09:05:45.554Z,99443.05
2019-05-16T09:08:18.506Z,99444.08
2019-05-16T09:11:01.718Z,99442.22
2019-05-16T09:13:27.907Z,99435.23
2019-05-16T09:16:01.542Z,99427.49
2019-05-16T09:18:40.667Z,99432.31
2019-05-16T09:21:09.384Z,99429.91
2019-05-16T09:23:43.263Z,99431.76
2019-05-16T09:26:19.812Z,99436.52
2019-05-16T09:28:52.757Z,99440.24
2019-05-16T09:31:27.550Z,99432.20
2019-05-16T09:34:00.189Z,99436.36
2019-05-16T09:36:33.516Z,99441.40
2019-05-16T09:39:09.180Z,99441.03
2019-05-16T09:41:53.395Z,99437.48
2019-05-16T09:44:18.841Z,99434.60
2019-05-16T09:46:52.262Z,99436.00
2019-05-16T09:49:26.247Z,99436.45
2019-05-16T09:52:00.391Z,99436.94
2019-05-16T09:54:34.193Z,99433.59
2019-05-16T09:57:07.082Z,99432.14
2019-05-16T09:59:41.294Z,99427.33
2019-05-16T10:02:17.620Z,99420.95
2019-05-16T10:04:50.584Z,99419.41
2019-05-16T10:07:28.011Z,99420.47
2019-05-16T10:09:59.764Z,99424.44
2019-05-16T10:12:33.656Z,99420.74
2019-05-16T10:15:08.122Z,99423.16
2019-05-16T10:17:41.525Z,99428.57
2019-05-16T10:20:16.887Z,99426.41
2019-05-16T10:22:50.853Z,99430.15
2019-05-16T10:25:24.366Z,99430.60
2019-05-16T10:27:57.729Z,99426.88
2019-05-16T10:30:31.708Z,99424.07
2019-05-16T10:33:07.081Z,99425.84
2019-05-16T10:35:40.141Z,99427.65
2019-05-16T10:38:13.047Z,99425.66
2019-05-16T10:40:47.418Z,99418.86
2019-05-16T10:43:21.426Z,99414.87
2019-05-16T10:45:54.792Z,99413.67
2019-05-16T10:48:28.533Z,99410.23
2019-05-16T10:51:01.301Z,99412.98
2019-05-16T10:54:00.619Z,99410.45
2019-05-16T10:56:10.574Z,99405.31
2019-05-16T10:59:12.152Z,99405.45
2019-05-16T11:01:27.120Z,99405.41
2019-05-16T11:03:53.716Z,99401.75
2019-05-16T11:06:29.380Z,99392.38
2019-05-16T11:09:01.540Z,99393.58
2019-05-16T11:11:36.772Z,99396.63
2019-05-16T11:14:10.204Z,99393.51
2019-05-16T11:16:42.962Z,99394.80
2019-05-16T11:19:21.252Z,99398.95
2019-05-16T11:21:51.936Z,99400.44
2019-05-16T11:24:29.026Z,99397.02
2019-05-16T11:27:00.261Z,99395.22
2019-05-16T11:29:36.474Z,99394.82
2019-05-16T11:32:09.455Z,99393.53
2019-05-16T11:34:42.781Z,99397.20
2019-05-16T11:37:17.683Z,99394.45
2019-05-16T11:39:51.975Z,99394.35
2019-05-16T11:42:27.995Z,99392.97
2019-05-16T11:45:01.765Z,99386.66
2019-05-16T11:47:36.811Z,99392.59
2019-05-16T11:50:12.065Z,99389.45
2019-05-16T11:52:47.647Z,99396.27
2019-05-16T11:55:21.369Z,99391.70
2019-05-16T11:57:56.876Z,99391.04
2019-05-16T12:00:30.699Z,99391.86
2019-05-16T12:03:03.945Z,99391.86
2019-05-16T12:05:37.421Z,99395.56
2019-05-16T12:08:09.947Z,99398.75
2019-05-16T12:10:42.651Z,99402.64
2019-05-16T12:13:25.346Z,99400.64
2019-05-16T12:15:51.055Z,99398.34
2019-05-16T12:18:26.611Z,99398.67
2019-05-16T12:21:00.302Z,99400.02
2019-05-16T12:23:33.572Z,99401.90
2019-05-16T12:26:08.177Z,99398.50
2019-05-16T12:28:42.467Z,99399.72
2019-05-16T12:31:17.352Z,99391.89
2019-05-16T12:33:52.011Z,99404.03
2019-05-16T12:36:26.782Z,99400.09
2019-05-16T12:39:01.057Z,99396.38
2019-05-16T12:41:34.752Z,99395.41
2019-05-16T12:44:08.178Z,99400.77
2019-05-16T12:46:42.234Z,99397.96
2019-05-16T12:49:17.551Z,99398.26
2019-05-16T12:51:51.805Z,99397.61
2019-05-16T12:54:27.614Z,99389.43
2019-05-16T12:57:00.316Z,99389.34
2019-05-16T12:59:34.087Z,99384.63
2019-05-16T13:02:08.382Z,99384.23
2019-05-16T13:04:41.702Z,99382.41
2019-05-16T13:07:17.364Z,99388.73
2019-05-16T13:09:51.614Z,99386.95
2019-05-16T13:12:27.146Z,99384.30
2019-05-16T13:15:00.617Z,99381.72
2019-05-16T13:17:33.580Z,99379.30
2019-05-16T13:20:08.035Z,99375.55
2019-05-16T13:22:41.595Z,99370.88
2019-05-16T13:25:18.042Z,99373.06
2019-05-16T13:27:50.765Z,99375.59
2019-05-16T13:30:26.704Z,99373.56
2019-05-16T13:32:59.277Z,99374.96
2019-05-16T13:35:33.395Z,99373.56
2019-05-16T13:38:08.081Z,99371.59
2019-05-16T13:40:41.623Z,99372.56
2019-05-16T13:43:17.412Z,99370.03
2019-05-16T13:45:51.232Z,99368.56
2019-05-16T13:48:26.748Z,99369.48
2019-05-16T13:51:10.649Z,99367.20
2019-05-16T13:53:37.036Z,99362.66
2019-05-16T13:56:13.549Z,99373.05
2019-05-16T13:58:47.526Z,99372.12
2019-05-16T14:01:22.280Z,99371.31
2019-05-16T14:03:57.249Z,99375.54
2019-05-16T14:06:31.309Z,99375.55
2019-05-16T14:09:07.219Z,99379.72
2019-05-16T14:11:39.460Z,99378.33
2019-05-16T14:14:13.362Z,99378.48
2019-05-16T14:16:47.039Z,99376.55
2019-05-16T14:19:21.521Z,99378.88
2019-05-16T14:21:56.995Z,99382.38
2019-05-16T14:24:30.134Z,99381.70
2019-05-16T14:27:06.441Z,99376.84
2019-05-16T14:29:38.829Z,99378.11
2019-05-16T14:32:12.257Z,99378.16
2019-05-16T14:34:50.968Z,99374.02
2019-05-16T14:37:20.590Z,99379.55
2019-05-16T14:39:57.723Z,99380.89
2019-05-16T14:42:29.819Z,99375.83
2019-05-16T14:45:10.763Z,99372.53
2019-05-16T14:47:38.205Z,99367.60
2019-05-16T14:50:14.111Z,99370.47
2019-05-16T14:52:47.622Z,99365.41
2019-05-16T14:55:21.972Z,99365.35
2019-05-16T14:57:56.721Z,99366.16
2019-05-16T15:00:30.820Z,99360.87
2019-05-16T15:03:07.928Z,99371.17
2019-05-16T15:05:42.683Z,99371.97
2019-05-16T15:08:14.375Z,99370.92
2019-05-16T15:10:48.000Z,99371.39
2019-05-16T15:13:22.188Z,99372.03
2019-05-16T15:15:56.937Z,99377.73
2019-05-16T15:18:30.749Z,99378.10
2019-05-16T15:21:08.011Z,99377.72
2019-05-16T15:23:39.349Z,99380.54
2019-05-16T15:26:13.053Z,99384.72
2019-05-16T15:28:48.003Z,99386.41
2019-05-16T15:31:22.852Z,99384.63
2019-05-16T15:33:57.246Z,99380.58
2019-05-16T15:36:30.965Z,99381.98
2019-05-16T15:39:08.004Z,99385.36
2019-05-16T15:41:40.499Z,99383.67
2019-05-16T15:44:16.935Z,99375.03
2019-05-16T15:46:50.296Z,99371.47
2019-05-16T15:49:26.538Z,99375.02
2019-05-16T15:52:01.594Z,99367.17
2019-05-16T15:54:37.611Z,99367.34
2019-05-16T15:57:11.526Z,99361.99
2019-05-16T15:59:46.960Z,99365.75
2019-05-16T16:02:20.406Z,99364.01
2019-05-16T16:04:54.047Z,99363.30
2019-05-16T16:07:27.170Z,99355.92
2019-05-16T16:10:01.189Z,99352.25
2019-05-16T16:12:37.246Z,99348.45
2019-05-16T16:15:08.843Z,99346.98
2019-05-16T16:17:41.570Z,99344.13
2019-05-16T16:20:16.947Z,99338.43
2019-05-16T16:22:49.840Z,99336.16
2019-05-16T16:25:23.644Z,99337.96
2019-05-16T16:27:57.960Z,99335.22
2019-05-16T16:30:31.452Z,99331.47
2019-05-16T16:33:19.049Z,99335.19
2019-05-16T16:35:40.312Z,99326.46
2019-05-16T16:38:14.076Z,99328.09
2019-05-16T16:40:48.176Z,99325.57
2019-05-16T16:43:24.205Z,99326.59
2019-05-16T16:46:06.100Z,99325.11
2019-05-16T16:48:31.047Z,99326.33
2019-05-16T16:51:06.582Z,99319.08
2019-05-16T16:53:39.982Z,99321.69
2019-05-16T16:56:17.965Z,99316.38
2019-05-16T16:58:58.780Z,99319.75
2019-05-16T17:01:31.794Z,99313.27
2019-05-16T17:04:06.599Z,99306.13
2019-05-16T17:06:40.202Z,99306.59
2019-05-16T17:09:13.080Z,99308.03
2019-05-16T17:11:46.538Z,99311.33
2019-05-16T17:14:18.788Z,99306.39
2019-05-16T17:16:51.761Z,99304.31
2019-05-16T17:19:24.606Z,99299.25
2019-05-16T17:22:12.755Z,99299.11
2019-05-16T17:24:31.630Z,99287.11
2019-05-16T17:27:07.562Z,99291.66
2019-05-16T17:29:39.065Z,99293.02
2019-05-16T17:32:13.434Z,99291.41
2019-05-16T17:34:46.347Z,99284.63
2019-05-16T17:37:19.845Z,99280.97
2019-05-16T17:39:52.830Z,99286.58
2019-05-16T17:42:27.045Z,99284.89
2019-05-16T17:44:59.955Z,99285.70
2019-05-16T17:47:32.520Z,99288.56
2019-05-16T17:50:06.232Z,99290.14
2019-05-16T17:52:40.551Z,99296.77
2019-05-16T17:55:17.217Z,99300.03
2019-05-16T17:57:57.013Z,99294.00
2019-05-16T18:00:30.567Z,99300.99
2019-05-16T18:03:03.449Z,99300.47
2019-05-16T18:05:37.106Z,99304.96
2019-05-16T18:08:09.932Z,99308.93
2019-05-16T18:10:43.278Z,99308.66
2019-05-16T18:13:16.465Z,99310.73
2019-05-16T18:15:49.294Z,99306.92
2019-05-16T18:18:23.055Z,99309.69
2019-05-16T18:21:01.763Z,99306.87
2019-05-16T18:23:31.237Z,99313.38
2019-05-16T18:26:04.227Z,99312.47
2019-05-16T18:28:37.698Z,99312.22
2019-05-16T18:31:09.955Z,99311.92
2019-05-16T18:33:42.746Z,99312.57
2019-05-16T18:36:17.007Z,99316.81
2019-05-16T18:38:50.038Z,99317.00
2019-05-16T18:41:23.650Z,99321.66
2019-05-16T18:43:56.772Z,99323.93
2019-05-16T18:46:29.306Z,99333.83
2019-05-16T18:49:02.644Z,99334.48
2019-05-16T18:51:37.007Z,99336.29
2019-05-16T18:54:09.870Z,99341.89
2019-05-16T18:56:42.421Z,99347.83
2019-05-16T18:59:16.880Z,99346.92
2019-05-16T19:01:50.642Z,99347.49
2019-05-16T19:04:23.189Z,99344.20
2019-05-16T19:06:56.595Z,99351.70
2019-05-16T19:09:30.638Z,99349.95
2019-05-16T19:12:06.525Z,99354.07
2019-05-16T19:14:38.699Z,99356.78
2019-05-16T19:17:22.137Z,99356.18
2019-05-16T19:19:46.849Z,99358.94
2019-05-16T19:22:20.127Z,99361.08
2019-05-16T19:24:52.963Z,99357.02
2019-05-16T19:27:26.189Z,99360.27
2019-05-16T19:29:59.387Z,99358.85
2019-05-16T19:32:33.320Z,99354.45
2019-05-16T19:35:06.983Z,99361.19
2019-05-16T19:37:40.857Z,99363.09
2019-05-16T19:40:17.158Z,99367.06
2019-05-16T19:42:49.879Z,99366.22
2019-05-16T19:45:26.370Z,99369.33
2019-05-16T19:47:59.878Z,99364.03
2019-05-16T19:50:33.688Z,99354.27
2019-05-16T19:53:07.868Z,99356.64
2019-05-16T19:55:40.468Z,99349.08
2019-05-16T19:58:14.390Z,99349.25
2019-05-16T20:00:47.648Z,99348.58
2019-05-16T20:03:20.869Z,99344.30
2019-05-16T20:05:56.656Z,99341.70
2019-05-16T20:08:30.025Z,99341.27
2019-05-16T20:11:03.727Z,99341.72
2019-05-16T20:13:36.808Z,99345.39
2019-05-16T20:16:10.289Z,99344.47
2019-05-16T20:18:43.900Z,99344.41
2019-05-16T20:21:18.525Z,99344.27
2019-05-16T20:23:52.244Z,99344.47
2019-05-16T20:26:27.235Z,99344.05
2019-05-16T20:29:00.568Z,99348.50
2019-05-16T20:31:33.855Z,99343.82
2019-05-16T20:34:09.019Z,99350.95
2019-05-16T20:36:41.703Z,99347.79
2019-05-16T20:39:17.247Z,99345.47
2019-05-16T20:41:51.446Z,99337.43
2019-05-16T20:44:26.730Z,99338.35
2019-05-16T20:47:00.163Z,99341.82
2019-05-16T20:49:33.544Z,99344.42
2019-05-16T20:52:08.285Z,99343.52
2019-05-16T20:54:41.988Z,99336.08
2019-05-16T20:57:17.249Z,99333.31
2019-05-16T20:59:51.546Z,99332.66
2019-05-16T21:02:26.917Z,99329.19
2019-05-16T21:05:00.290Z,99330.09
2019-05-16T21:07:33.883Z,99332.05
2019-05-16T21:10:07.907Z,99329.38
2019-05-16T21:12:41.503Z,99326.25
2019-05-16T21:15:17.119Z,99323.78
2019-05-16T21:17:50.367Z,99326.04
2019-05-16T21:20:26.948Z,99320.33
2019-05-16T21:23:00.440Z,99322.20
2019-05-16T21:25:33.366Z,99318.47
2019-05-16T21:28:07.885Z,99317.19
2019-05-16T21:30:41.934Z,99309.29
2019-05-16T21:33:16.534Z,99308.98
2019-05-16T21:35:50.632Z,99309.31
2019-05-16T21:38:26.911Z,99309.01
2019-05-16T21:41:00.772Z,99306.48
2019-05-16T21:43:33.222Z,99312.41
2019-05-16T21:46:07.464Z,99309.69
2019-05-16T21:48:41.145Z,99310.13
2019-05-16T21:51:19.388Z,99309.23
2019-05-16T21:53:50.315Z,99306.61
2019-05-16T21:56:23.786Z,99304.00
2019-05-16T21:58:57.547Z,99301.88
2019-05-16T22:01:31.328Z,99298.94
2019-05-16T22:04:07.348Z,99297.34
2019-05-16T22:06:40.854Z,99301.27
2019-05-16T22:09:15.076Z,99300.91
2019-05-16T22:11:48.776Z,99300.66
2019-05-16T22:14:27.626Z,99296.45
2019-05-16T22:17:01.550Z,99299.90
2019-05-16T22:19:36.183Z,99295.87
2019-05-16T22:22:09.841Z,99293.44
2019-05-16T22:24:46.190Z,99289.46
2019-05-16T22:27:19.550Z,99286.36
2019-05-16T22:29:53.395Z,99281.43
2019-05-16T22:32:27.193Z,99275.39
2019-05-16T22:35:01.853Z,99272.50
2019-05-16T22:37:48.434Z,99276.37
2019-05-16T22:40:12.560Z,99274.04
2019-05-16T22:42:46.913Z,99282.07
2019-05-16T22:45:22.598Z,99275.19
2019-05-16T22:47:55.887Z,99267.41
2019-05-16T22:50:29.113Z,99262.83
2019-05-16T22:53:02.818Z,99264.53
2019-05-16T22:55:37.376Z,99257.59
2019-05-16T22:58:11.834Z,99257.30
2019-05-16T23:00:44.658Z,99260.04
2019-05-16T23:03:18.364Z,99260.06
2019-05-16T23:05:51.758Z,99264.34
2019-05-16T23:08:24.448Z,99262.66
2019-05-16T23:10:57.374Z,99262.79
2019-05-16T23:13:30.673Z,99256.80
2019-05-16T23:16:06.283Z,99252.46
2019-05-16T23:18:39.246Z,99252.32
2019-05-16T23:21:12.839Z,99256.83
2019-05-16T23:23:47.165Z,99249.95
2019-05-16T23:26:20.421Z,99245.84
2019-05-16T23:28:56.459Z,99243.97
2019-05-16T23:31:29.690Z,99237.06
2019-05-16T23:34:03.513Z,99232.09
2019-05-16T23:36:37.128Z,99232.85
2019-05-16T23:39:10.787Z,99223.87
2019-05-16T23:41:44.505Z,99225.72
2019-05-16T23:44:18.189Z,99223.27
2019-05-16T23:46:51.968Z,99221.36
2019-05-16T23:49:27.354Z,99217.23
2019-05-16T23:52:00.455Z,99214.69
2019-05-16T23:54:33.761Z,99215.69
2019-05-16T23:57:07.035Z,99211.55
2019-05-16T23:59:40.220Z,99205.68
